Time;durP1;ratioP1;P1;durP2;ratioP2;P2;SDS_P1;SDS_P2;PMS_P1;PMS_P2;Temp;Humidity;BMP_temperature;BMP_pressure;BME280_temperature;BME280_humidity;BME280_pressure;Samples;Min_cycle;Max_cycle;Signal;HPM_P1;HPM_P2
2022/09/16 00:01:17;;;;;;;9.35;0.95;;;10.50;99.90;;;;;;4939684;29;20047;-76
2022/09/16 00:03:44;;;;;;;8.93;1.27;;;10.50;99.90;;;;;;4957367;29;20051;-74
2022/09/16 00:06:28;;;;;;;;;;;10.40;99.90;;;;;;4957009;29;20106;-75
2022/09/16 00:08:56;;;;;;;9.38;0.90;;;10.50;99.90;;;;;;4957134;29;19926;-75
2022/09/16 00:11:23;;;;;;;10.48;1.00;;;10.50;99.90;;;;;;4957354;29;20396;-75
2022/09/16 00:13:49;;;;;;;9.35;0.93;;;10.50;99.90;;;;;;4957175;29;20053;-74
2022/09/16 00:16:26;;;;;;;10.60;0.95;;;10.60;99.90;;;;;;4923446;29;20050;-75
2022/09/16 00:18:54;;;;;;;6.10;0.68;;;10.70;99.90;;;;;;4956610;29;20047;-74
2022/09/16 00:21:20;;;;;;;7.50;0.85;;;10.70;99.90;;;;;;4956229;29;20133;-75
2022/09/16 00:23:46;;;;;;;8.63;0.95;;;10.80;99.90;;;;;;4956202;29;20043;-73
2022/09/16 00:26:11;;;;;;;8.02;0.88;;;10.90;99.90;;;;;;4956110;29;20047;-74
2022/09/16 00:28:38;;;;;;;4.65;0.70;;;10.90;99.90;;;;;;4956293;29;20078;-81
2022/09/16 00:31:04;;;;;;;11.18;1.00;;;11.00;99.90;;;;;;4956503;29;20157;-76
2022/09/16 00:33:30;;;;;;;6.15;0.60;;;11.00;99.90;;;;;;4940314;29;20087;-74
2022/09/16 00:36:12;;;;;;;15.77;1.23;;;11.00;99.90;;;;;;4939099;29;20043;-73
2022/09/16 00:38:38;;;;;;;11.18;0.60;;;11.10;99.90;;;;;;4957758;29;20047;-81
2022/09/16 00:41:05;;;;;;;8.63;0.63;;;11.10;99.90;;;;;;4963913;29;20047;-80
2022/09/16 00:43:58;;;;;;;12.63;0.60;;;11.10;99.90;;;;;;4972374;29;20054;-76
2022/09/16 00:46:44;;;;;;;9.27;0.60;;;11.10;99.90;;;;;;4952911;29;20066;-75
2022/09/16 00:49:19;;;;;;;11.90;0.70;;;11.20;99.90;;;;;;4951519;29;20217;-84
2022/09/16 00:51:48;;;;;;;6.07;0.57;;;11.20;99.90;;;;;;4959109;29;20083;-74
2022/09/16 00:54:16;;;;;;;3.15;0.50;;;11.20;99.90;;;;;;4959867;29;20059;-84
2022/09/16 00:56:45;;;;;;;5.90;0.50;;;11.20;99.90;;;;;;4965252;29;20158;-85
2022/09/16 00:59:19;;;;;;;9.77;0.80;;;11.30;99.90;;;;;;4953964;29;20047;-87
2022/09/16 01:01:46;;;;;;;12.07;0.60;;;11.30;99.90;;;;;;4958693;29;20074;-75
2022/09/16 01:04:24;;;;;;;4.70;0.55;;;11.40;99.90;;;;;;4971893;28;20102;-78
2022/09/16 01:06:50;;;;;;;11.85;0.60;;;11.40;99.90;;;;;;4971921;29;20459;-74
2022/09/16 01:09:18;;;;;;;7.75;0.70;;;11.40;99.90;;;;;;4968021;29;20047;-75
2022/09/16 01:11:44;;;;;;;10.48;0.60;;;11.40;99.90;;;;;;4950184;29;20049;-74
2022/09/16 01:17:19;;;;;;;8.45;0.63;;;11.40;99.90;;;;;;4958456;29;20062;-76
2022/09/16 01:19:59;;;;;;;6.28;0.57;;;11.50;99.90;;;;;;4957759;29;20090;-75
2022/09/16 01:22:44;;;;;;;4.32;0.47;;;11.50;99.90;;;;;;4956911;29;20098;-74
2022/09/16 01:25:39;;;;;;;12.90;0.80;;;11.50;99.90;;;;;;4956911;29;20507;-73
2022/09/16 01:28:21;;;;;;;14.43;0.70;;;11.40;99.90;;;;;;4939359;29;20399;-75
2022/09/16 01:31:07;;;;;;;11.25;0.95;;;11.30;99.90;;;;;;4938461;29;20055;-75
2022/09/16 01:33:41;;;;;;;10.70;0.63;;;11.30;99.90;;;;;;4938933;29;20117;-74
2022/09/16 01:36:16;;;;;;;10.82;0.82;;;11.20;99.90;;;;;;4939288;29;20099;-74
2022/09/16 01:38:54;;;;;;;5.80;0.55;;;11.20;99.90;;;;;;4938689;29;20061;-84
2022/09/16 01:41:35;;;;;;;5.63;0.57;;;11.20;99.90;;;;;;4956510;29;20130;-79
2022/09/16 01:44:33;;;;;;;7.57;0.60;;;11.20;99.90;;;;;;4956401;29;20043;-74
2022/09/16 01:47:09;;;;;;;6.03;0.55;;;11.30;99.90;;;;;;4923176;29;20055;-74
2022/09/16 01:50:15;;;;;;;5.55;0.70;;;11.30;99.90;;;;;;4938289;29;20142;-75
2022/09/16 01:52:59;;;;;;;9.85;0.60;;;11.30;99.90;;;;;;4936173;29;20059;-81
2022/09/16 01:55:41;;;;;;;7.18;0.77;;;11.30;99.90;;;;;;4955102;29;20059;-74
2022/09/16 01:58:20;;;;;;;7.30;0.80;;;11.20;99.90;;;;;;4937590;29;20082;-75
2022/09/16 02:00:49;;;;;;;7.40;0.70;;;11.20;99.90;;;;;;4922743;29;20063;-79
2022/09/16 02:03:20;;;;;;;9.25;0.70;;;11.20;99.90;;;;;;4938156;29;20047;-74
2022/09/16 02:06:06;;;;;;;11.38;0.90;;;11.20;99.90;;;;;;4955676;29;20044;-74
2022/09/16 02:08:39;;;;;;;6.78;0.50;;;11.20;99.90;;;;;;4923046;29;20142;-79
2022/09/16 02:11:08;;;;;;;5.22;0.43;;;11.10;99.90;;;;;;4923226;29;20480;-75
2022/09/16 02:14:00;;;;;;;11.63;0.70;;;11.10;99.90;;;;;;4938996;29;20059;-74
2022/09/16 02:16:34;;;;;;;4.10;1.02;;;11.00;99.90;;;;;;4934772;28;20055;-74
2022/09/16 02:19:09;;;;;;;9.52;0.70;;;11.10;99.90;;;;;;4934780;29;20083;-76
2022/09/16 02:21:37;;;;;;;11.40;0.82;;;11.10;99.90;;;;;;4960495;29;20055;-73
2022/09/16 02:24:08;;;;;;;7.88;0.77;;;11.10;99.90;;;;;;4959746;29;20126;-76
2022/09/16 02:26:38;;;;;;;7.00;0.52;;;11.10;99.90;;;;;;4959825;29;20130;-75
2022/09/16 02:29:14;;;;;;;7.55;0.80;;;11.10;99.90;;;;;;4959009;29;20121;-73
2022/09/16 02:31:42;;;;;;;7.28;0.82;;;11.10;99.90;;;;;;4959799;29;20051;-75
2022/09/16 02:34:19;;;;;;;8.52;0.90;;;11.10;99.90;;;;;;4943414;29;20051;-77
2022/09/16 02:36:49;;;;;;;11.23;0.75;;;11.00;99.90;;;;;;4959222;29;20055;-80
2022/09/16 02:39:19;;;;;;;9.73;0.70;;;11.10;99.90;;;;;;4959265;29;20051;-81
2022/09/16 02:41:46;;;;;;;10.90;0.57;;;11.10;99.90;;;;;;4959030;29;20062;-74
2022/09/16 02:44:12;;;;;;;7.13;0.50;;;11.00;99.90;;;;;;4958813;29;20263;-76
2022/09/16 02:47:02;;;;;;;7.85;0.80;;;11.00;99.90;;;;;;4958455;29;20083;-79
2022/09/16 02:49:39;;;;;;;8.98;0.80;;;10.90;99.90;;;;;;4958316;29;20043;-72
2022/09/16 02:52:05;;;;;;;10.95;0.70;;;10.90;99.90;;;;;;4958334;29;20533;-76
2022/09/16 02:54:54;;;;;;;7.90;0.90;;;10.80;99.90;;;;;;4941888;29;20133;-75
2022/09/16 02:57:20;;;;;;;10.00;0.70;;;10.70;99.90;;;;;;4910474;29;20133;-75
2022/09/16 02:59:47;;;;;;;7.13;0.60;;;10.70;99.90;;;;;;4924611;29;20129;-74
2022/09/16 03:02:13;;;;;;;9.15;0.60;;;10.70;99.90;;;;;;4941190;29;20290;-87
2022/09/16 03:04:39;;;;;;;10.45;0.43;;;10.60;99.90;;;;;;4940620;29;20050;-74
2022/09/16 03:07:07;;;;;;;5.38;0.55;;;10.50;99.90;;;;;;4957799;29;20105;-74
2022/09/16 03:09:37;;;;;;;7.22;0.63;;;10.60;99.90;;;;;;4940857;29;20130;-73
2022/09/16 03:12:18;;;;;;;12.27;1.40;;;10.50;99.90;;;;;;4957965;29;20185;-76
2022/09/16 03:15:21;;;;;;;8.43;0.60;;;10.50;99.90;;;;;;4941397;29;20403;-76
2022/09/16 03:18:08;;;;;;;4.70;0.57;;;10.60;99.90;;;;;;4957778;29;20130;-74
2022/09/16 03:21:04;;;;;;;9.77;0.80;;;10.60;99.90;;;;;;4957626;29;20106;-74
2022/09/16 03:23:56;;;;;;;13.48;0.70;;;10.70;99.90;;;;;;4940021;29;20051;-75
2022/09/16 03:26:44;;;;;;;10.55;0.45;;;10.70;99.90;;;;;;4957520;29;20055;-75
2022/09/16 03:29:33;;;;;;;11.95;0.80;;;10.70;99.90;;;;;;4956788;28;20046;-74
2022/09/16 03:32:01;;;;;;;8.07;0.60;;;10.70;99.90;;;;;;4957465;29;20047;-75
2022/09/16 03:34:33;;;;;;;4.47;0.40;;;10.80;99.90;;;;;;4924241;29;20575;-75
2022/09/16 03:37:04;;;;;;;5.40;0.60;;;10.80;99.90;;;;;;4956800;29;20047;-81
2022/09/16 03:39:31;;;;;;;4.40;0.60;;;10.80;99.90;;;;;;4957422;29;20187;-75
2022/09/16 03:42:04;;;;;;;7.88;0.63;;;10.80;99.90;;;;;;4957025;29;20055;-77
2022/09/16 03:44:35;;;;;;;5.93;1.60;;;10.80;99.90;;;;;;4939943;29;20079;-75
2022/09/16 03:47:01;;;;;;;11.48;0.60;;;10.80;99.90;;;;;;4957656;29;20130;-75
2022/09/16 03:49:28;;;;;;;6.72;0.63;;;10.80;99.90;;;;;;4957147;29;20111;-81
2022/09/16 03:51:54;;;;;;;;;;;10.80;99.90;;;;;;4958117;29;20500;-86
2022/09/16 03:54:20;;;;;;;9.00;0.77;;;10.70;99.90;;;;;;4907991;29;19966;-74
2022/09/16 03:56:46;;;;;;;8.27;0.75;;;10.70;99.90;;;;;;4924070;29;20110;-74
2022/09/16 03:59:11;;;;;;;7.80;0.80;;;10.60;99.90;;;;;;4939314;29;20399;-76
2022/09/16 04:01:37;;;;;;;9.90;0.90;;;10.60;99.90;;;;;;4939622;29;20102;-76
2022/09/16 04:04:03;;;;;;;6.60;0.95;;;10.50;99.90;;;;;;4956619;29;20133;-74
2022/09/16 04:06:28;;;;;;;8.98;1.30;;;10.50;99.90;;;;;;4939695;29;20051;-77
2022/09/16 04:08:56;;;;;;;9.25;1.20;;;10.50;99.90;;;;;;4940006;29;20047;-75
2022/09/16 04:11:21;;;;;;;8.27;0.80;;;10.60;99.90;;;;;;4962760;29;20065;-74
2022/09/16 04:13:47;;;;;;;7.90;1.15;;;10.60;99.90;;;;;;4927602;29;20043;-75
2022/09/16 04:16:20;;;;;;;11.55;1.45;;;10.60;99.90;;;;;;4958836;29;20087;-75
2022/09/16 04:18:46;;;;;;;10.82;1.13;;;10.60;99.90;;;;;;4957137;29;20049;-75
2022/09/16 04:21:11;;;;;;;7.82;1.17;;;10.60;99.90;;;;;;4936595;29;20068;-77
2022/09/16 04:23:37;;;;;;;6.35;1.10;;;10.60;99.90;;;;;;4936393;29;20047;-75
2022/09/16 04:26:03;;;;;;;7.80;0.90;;;10.60;99.90;;;;;;4920307;29;20055;-74
2022/09/16 04:28:32;;;;;;;14.32;1.20;;;10.50;99.90;;;;;;4919939;29;20133;-74
2022/09/16 04:31:11;;;;;;;10.35;1.30;;;10.50;99.90;;;;;;4936944;29;20043;-75
2022/09/16 04:33:37;;;;;;;7.28;1.20;;;10.50;99.90;;;;;;4937159;29;20047;-73
2022/09/16 04:36:11;;;;;;;13.55;1.30;;;10.50;99.90;;;;;;4919946;29;20083;-75
2022/09/16 04:38:38;;;;;;;12.45;1.60;;;10.50;99.90;;;;;;4936762;29;20107;-75
2022/09/16 04:41:06;;;;;;;13.27;1.30;;;10.40;99.90;;;;;;4935694;29;20062;-74
2022/09/16 04:43:32;;;;;;;12.43;1.08;;;10.40;99.90;;;;;;4937253;29;20048;-78
2022/09/16 04:45:59;;;;;;;10.25;1.38;;;10.40;99.90;;;;;;4935869;29;20059;-75
2022/09/16 04:48:25;;;;;;;9.02;1.15;;;10.30;99.90;;;;;;4941074;29;20079;-74
2022/09/16 04:50:52;;;;;;;9.13;1.30;;;10.30;99.90;;;;;;4945063;29;20055;-74
2022/09/16 04:53:19;;;;;;;10.02;1.10;;;10.20;99.90;;;;;;4943174;29;20043;-74
2022/09/16 04:55:45;;;;;;;13.52;1.20;;;10.20;99.90;;;;;;4944925;28;20063;-74
2022/09/16 04:58:11;;;;;;;7.33;1.00;;;10.20;99.90;;;;;;4938023;29;20127;-75
2022/09/16 05:00:37;;;;;;;5.80;1.30;;;10.20;99.90;;;;;;4938273;29;20079;-73
2022/09/16 05:03:03;;;;;;;7.50;1.00;;;10.20;99.90;;;;;;4936652;29;20473;-84
2022/09/16 05:05:28;;;;;;;13.95;1.30;;;10.20;99.90;;;;;;4936980;29;20040;-74
2022/09/16 05:07:54;;;;;;;12.55;1.48;;;10.20;99.90;;;;;;4938235;29;20496;-77
2022/09/16 05:10:20;;;;;;;7.88;1.13;;;10.20;99.90;;;;;;4937531;29;20558;-75
2022/09/16 05:12:51;;;;;;;7.57;1.20;;;10.20;99.90;;;;;;4936589;29;20056;-73
2022/09/16 05:15:16;;;;;;;6.03;1.08;;;10.20;99.90;;;;;;4944611;29;20058;-76
2022/09/16 05:17:42;;;;;;;7.45;1.13;;;10.20;99.90;;;;;;4941033;29;20048;-75
2022/09/16 05:20:09;;;;;;;14.27;1.40;;;10.30;99.90;;;;;;4945852;29;20109;-74
2022/09/16 05:22:34;;;;;;;15.88;2.13;;;10.20;99.90;;;;;;4956671;29;20063;-75
2022/09/16 05:25:00;;;;;;;14.05;1.77;;;10.20;99.90;;;;;;4940181;29;20058;-74
2022/09/16 05:27:30;;;;;;;12.50;1.70;;;10.20;99.90;;;;;;4925237;29;20420;-75
2022/09/16 05:29:56;;;;;;;11.52;1.13;;;10.10;99.90;;;;;;4960457;28;20492;-73
2022/09/16 05:32:21;;;;;;;11.82;1.50;;;10.10;99.90;;;;;;4939190;29;20059;-74
2022/09/16 05:34:48;;;;;;;13.65;1.75;;;10.00;99.90;;;;;;4955715;29;20432;-77
2022/09/16 05:37:14;;;;;;;22.98;4.38;;;10.00;99.90;;;;;;4938742;29;20518;-74
2022/09/16 05:39:39;;;;;;;31.58;6.82;;;9.90;99.90;;;;;;4938911;29;20047;-74
2022/09/16 05:42:05;;;;;;;27.65;6.38;;;9.90;99.90;;;;;;4922459;29;20102;-84
2022/09/16 05:44:31;;;;;;;11.38;2.42;;;9.90;99.90;;;;;;4955407;29;20051;-74
2022/09/16 05:46:57;;;;;;;9.15;1.60;;;9.90;99.90;;;;;;4954949;29;20078;-73
2022/09/16 05:49:23;;;;;;;17.05;1.70;;;9.90;99.90;;;;;;4937636;29;20047;-74
2022/09/16 05:51:49;;;;;;;13.50;1.20;;;9.90;99.90;;;;;;4940464;29;20066;-73
2022/09/16 05:54:17;;;;;;;16.35;1.60;;;9.90;99.90;;;;;;4941870;29;20121;-74
2022/09/16 05:56:43;;;;;;;12.68;1.42;;;9.90;99.90;;;;;;4941205;29;20114;-81
2022/09/16 05:59:11;;;;;;;12.18;1.30;;;10.00;99.90;;;;;;4941458;29;20058;-84
2022/09/16 06:01:37;;;;;;;11.82;1.17;;;10.00;99.90;;;;;;4958871;29;20047;-73
2022/09/16 06:04:05;;;;;;;13.63;1.35;;;10.00;99.90;;;;;;4941960;29;20066;-73
2022/09/16 06:06:39;;;;;;;12.20;1.20;;;10.00;99.90;;;;;;4941909;29;20062;-74
2022/09/16 06:09:12;;;;;;;10.75;0.98;;;10.10;99.90;;;;;;4941526;29;20125;-73
2022/09/16 06:11:40;;;;;;;13.00;1.00;;;10.10;99.90;;;;;;4941253;29;20130;-73
2022/09/16 06:14:07;;;;;;;14.07;2.50;;;10.10;99.90;;;;;;4940916;29;20110;-75
2022/09/16 06:16:33;;;;;;;9.73;1.33;;;10.20;99.90;;;;;;4941027;29;20055;-73
2022/09/16 06:19:01;;;;;;;15.18;1.27;;;10.30;99.90;;;;;;4940849;29;20043;-74
2022/09/16 06:21:27;;;;;;;19.63;1.00;;;10.30;99.90;;;;;;4958189;29;20059;-75
2022/09/16 06:23:53;;;;;;;13.20;1.10;;;10.40;99.90;;;;;;4925565;29;20188;-74
2022/09/16 06:26:21;;;;;;;13.53;0.90;;;10.60;99.90;;;;;;4958082;29;20294;-75
2022/09/16 06:28:48;;;;;;;15.77;1.20;;;10.70;99.90;;;;;;4957933;29;20047;-74
2022/09/16 06:31:19;;;;;;;7.63;0.60;;;10.90;99.90;;;;;;4925157;29;20051;-76
2022/09/16 06:33:45;;;;;;;13.77;1.75;;;10.90;99.90;;;;;;4925071;29;20476;-75
2022/09/16 06:36:14;;;;;;;9.07;0.90;;;11.00;99.90;;;;;;4957724;29;20054;-75
2022/09/16 06:38:40;;;;;;;8.68;0.80;;;11.00;99.90;;;;;;4940698;29;20113;-74
2022/09/16 06:41:08;;;;;;;12.30;0.75;;;11.00;99.90;;;;;;4957710;29;20051;-73
2022/09/16 06:43:34;;;;;;;11.00;0.90;;;11.10;99.90;;;;;;4957974;29;20068;-77
2022/09/16 06:46:12;;;;;;;13.50;1.48;;;11.20;99.90;;;;;;4957982;29;20059;-74
2022/09/16 06:48:39;;;;;;;14.40;1.50;;;11.20;99.90;;;;;;4940851;29;20484;-73
2022/09/16 06:51:12;;;;;;;10.82;0.90;;;11.30;99.90;;;;;;4940742;29;20053;-73
2022/09/16 06:53:38;;;;;;;16.83;1.67;;;11.40;99.90;;;;;;4957741;29;20073;-74
2022/09/16 06:56:06;;;;;;;10.73;0.70;;;11.50;99.90;;;;;;4940692;29;20400;-73
2022/09/16 06:58:34;;;;;;;16.48;0.93;;;11.50;99.90;;;;;;4941146;29;20051;-73
2022/09/16 07:01:07;;;;;;;16.08;1.00;;;11.50;99.90;;;;;;4957426;29;20086;-78
2022/09/16 07:03:37;;;;;;;9.82;0.68;;;11.50;99.90;;;;;;4957111;28;20098;-74
2022/09/16 07:06:03;;;;;;;10.90;0.60;;;11.60;99.90;;;;;;4924792;29;20055;-74
2022/09/16 07:08:33;;;;;;;16.65;0.82;;;11.60;99.90;;;;;;4940554;29;20094;-74
2022/09/16 07:11:01;;;;;;;10.80;1.15;;;11.60;99.90;;;;;;4959050;29;20106;-74
2022/09/16 07:13:27;;;;;;;14.77;0.90;;;11.60;99.90;;;;;;4940407;29;20074;-78
2022/09/16 07:15:53;;;;;;;16.90;1.08;;;11.70;99.90;;;;;;4940131;29;20047;-76
2022/09/16 07:18:20;;;;;;;8.30;0.77;;;11.80;99.90;;;;;;4924464;29;20488;-75
2022/09/16 07:20:45;;;;;;;9.48;0.88;;;11.80;99.90;;;;;;4939289;29;20130;-74
2022/09/16 07:23:11;;;;;;;12.57;1.02;;;11.90;99.90;;;;;;4939908;28;20138;-75
2022/09/16 07:25:37;;;;;;;12.07;0.77;;;12.00;99.90;;;;;;4957108;29;20054;-74
2022/09/16 07:28:03;;;;;;;7.22;0.60;;;12.10;99.90;;;;;;4924022;29;20082;-75
2022/09/16 07:30:29;;;;;;;20.03;1.00;;;12.10;99.90;;;;;;4957257;29;20050;-75
2022/09/16 07:32:56;;;;;;;11.60;0.63;;;12.00;99.90;;;;;;4956890;29;20159;-74
2022/09/16 07:35:22;;;;;;;14.93;0.75;;;12.00;99.90;;;;;;4956985;29;20126;-76
2022/09/16 07:37:47;;;;;;;18.73;1.23;;;12.10;99.90;;;;;;4923983;29;20083;-74
2022/09/16 07:40:13;;;;;;;11.70;0.80;;;12.20;99.90;;;;;;4956877;29;20127;-75
2022/09/16 07:42:39;;;;;;;10.75;0.68;;;12.20;99.90;;;;;;4923905;29;20477;-75
2022/09/16 07:45:05;;;;;;;11.73;0.57;;;12.30;99.90;;;;;;4956786;29;20047;-78
2022/09/16 07:47:31;;;;;;;16.15;0.85;;;12.40;99.90;;;;;;4957409;29;20420;-78
2022/09/16 07:49:58;;;;;;;12.15;1.52;;;12.60;99.90;;;;;;4923788;29;20051;-74
2022/09/16 07:52:28;;;;;;;13.52;0.75;;;12.60;99.90;;;;;;4956677;29;20130;-82
2022/09/16 07:54:55;;;;;;;13.95;0.98;;;12.70;99.90;;;;;;4940059;29;20368;-77
2022/09/16 07:57:21;;;;;;;14.05;0.55;;;12.70;99.90;;;;;;4956370;29;20078;-81
2022/09/16 07:59:47;;;;;;;16.45;0.77;;;12.80;99.90;;;;;;4908998;29;20051;-80
2022/09/16 08:02:13;;;;;;;15.02;0.93;;;12.80;99.90;;;;;;4939140;29;20043;-77
2022/09/16 08:04:40;;;;;;;20.30;1.08;;;13.00;99.90;;;;;;4939060;29;20105;-79
2022/09/16 08:07:06;;;;;;;;;;;13.00;99.90;;;;;;4924629;29;20051;-75
2022/09/16 08:09:32;;;;;;;10.93;0.43;;;13.20;99.90;;;;;;4962967;29;19946;-80
2022/09/16 08:11:58;;;;;;;11.35;0.75;;;13.20;99.90;;;;;;4963875;29;20057;-76
2022/09/16 08:14:24;;;;;;;13.97;0.80;;;13.30;99.90;;;;;;4948576;29;20048;-77
2022/09/16 08:16:50;;;;;;;15.15;0.60;;;13.30;99.90;;;;;;4944368;29;20061;-77
2022/09/16 08:19:16;;;;;;;13.43;0.85;;;13.30;99.90;;;;;;4956956;29;20182;-80
2022/09/16 08:21:42;;;;;;;11.10;0.60;;;13.40;99.90;;;;;;4939633;29;20059;-79
2022/09/16 08:24:09;;;;;;;23.10;0.90;;;13.50;99.90;;;;;;4956945;29;20055;-82
2022/09/16 08:26:35;;;;;;;;;;;13.50;99.90;;;;;;4957041;29;20137;-78
2022/09/16 08:29:01;;;;;;;11.17;0.67;;;13.60;99.90;;;;;;4939699;29;20496;-74
2022/09/16 08:31:27;;;;;;;12.02;0.85;;;13.70;99.90;;;;;;4938783;29;20483;-80
2022/09/16 08:33:53;;;;;;;13.30;0.90;;;13.80;99.90;;;;;;4957419;29;20051;-77
2022/09/16 08:36:25;;;;;;;13.27;0.82;;;13.90;99.90;;;;;;5089260;27;20443;-76
2022/09/16 08:38:54;;;;;;;10.88;0.40;;;14.00;99.90;;;;;;5079342;28;20484;-78
2022/09/16 08:41:38;;;;;;;12.48;0.45;;;14.10;99.90;;;;;;5069514;28;20045;-77
2022/09/16 08:44:15;;;;;;;12.32;0.63;;;14.20;99.90;;;;;;5072262;28;20044;-78
2022/09/16 08:46:51;;;;;;;9.63;0.50;;;14.30;99.90;;;;;;5070356;28;20229;-77
2022/09/16 08:49:34;;;;;;;16.00;0.95;;;14.30;99.90;;;;;;5070461;28;20508;-77
2022/09/16 08:52:14;;;;;;;14.00;1.00;;;14.40;99.90;;;;;;5077486;28;20041;-81
2022/09/16 08:54:43;;;;;;;;;;;14.50;99.90;;;;;;5118891;28;20044;-77
2022/09/16 08:57:23;;;;;;;13.55;1.33;;;14.70;99.90;;;;;;5120779;27;19907;-77
2022/09/16 08:59:56;;;;;;;10.45;0.75;;;15.00;99.90;;;;;;5119745;28;20123;-76
2022/09/16 09:02:25;;;;;;;14.82;0.90;;;15.30;99.90;;;;;;5095358;28;20489;-79
2022/09/16 09:04:50;;;;;;;16.83;0.80;;;15.50;99.90;;;;;;5070084;28;20476;-79
2022/09/16 09:07:58;;;;;;;18.88;0.85;;;15.60;99.90;;;;;;5071296;28;20044;-77
2022/09/16 09:10:39;;;;;;;19.02;0.90;;;15.40;99.90;;;;;;5063159;28;20076;-76
2022/09/16 09:13:36;;;;;;;20.73;0.80;;;14.90;99.90;;;;;;5071603;28;20056;-77
2022/09/16 09:16:19;;;;;;;16.48;0.90;;;14.40;99.90;;;;;;5087860;28;20384;-76
2022/09/16 09:19:06;;;;;;;18.65;1.08;;;14.10;99.90;;;;;;5086518;28;20120;-77
2022/09/16 09:21:40;;;;;;;12.77;0.90;;;13.90;99.90;;;;;;5087206;28;20174;-79
2022/09/16 09:24:33;;;;;;;18.75;1.13;;;13.90;99.90;;;;;;5088288;28;20189;-76
2022/09/16 09:27:13;;;;;;;14.85;1.30;;;14.00;99.90;;;;;;5083768;28;20052;-78
2022/09/16 09:30:01;;;;;;;13.68;0.88;;;14.20;99.90;;;;;;5049698;28;20097;-77
2022/09/16 09:32:50;;;;;;;19.17;1.48;;;14.40;99.90;;;;;;5073637;28;20040;-80
2022/09/16 09:35:37;;;;;;;10.32;0.80;;;14.60;99.90;;;;;;5089562;28;20114;-79
2022/09/16 09:38:29;;;;;;;18.55;0.70;;;14.80;99.90;;;;;;5090799;28;20052;-80
2022/09/16 09:41:19;;;;;;;17.27;0.80;;;14.80;99.90;;;;;;5095648;28;20108;-79
2022/09/16 09:44:10;;;;;;;11.55;0.60;;;15.00;99.90;;;;;;5106048;28;20370;-79
2022/09/16 09:46:41;;;;;;;6.53;0.60;;;15.10;99.90;;;;;;5061054;28;20175;-78
2022/09/16 09:49:32;;;;;;;10.20;0.57;;;15.20;99.90;;;;;;5055060;28;20088;-81
2022/09/16 09:52:12;;;;;;;13.80;0.90;;;15.30;99.90;;;;;;5087297;28;20378;-78
2022/09/16 09:54:40;;;;;;;16.80;1.25;;;15.40;99.90;;;;;;5056296;28;20409;-80
2022/09/16 09:57:28;;;;;;;19.40;0.70;;;15.50;99.90;;;;;;5043601;28;20052;-76
2022/09/16 10:00:16;;;;;;;15.65;0.88;;;15.70;99.90;;;;;;5057273;28;20181;-77
2022/09/16 10:02:44;;;;;;;16.55;0.90;;;15.80;99.90;;;;;;5059476;28;20060;-78
2022/09/16 10:05:26;;;;;;;14.38;0.75;;;15.70;99.90;;;;;;5049482;28;20041;-74
2022/09/16 10:08:01;;;;;;;15.57;0.70;;;15.70;99.90;;;;;;5053641;28;20037;-79
2022/09/16 10:10:32;;;;;;;17.95;1.25;;;15.70;99.90;;;;;;5055771;28;20045;-77
2022/09/16 10:13:07;;;;;;;15.15;0.82;;;15.70;99.90;;;;;;5074155;28;20145;-77
2022/09/16 10:15:43;;;;;;;6.30;0.70;;;15.80;99.90;;;;;;5073612;28;20052;-78
2022/09/16 10:18:31;;;;;;;17.77;0.80;;;15.90;99.90;;;;;;5074210;28;20041;-76
2022/09/16 10:21:06;;;;;;;22.20;0.88;;;16.00;99.90;;;;;;5065687;28;20033;-75
2022/09/16 10:23:33;;;;;;;16.55;0.60;;;16.10;99.90;;;;;;5052891;28;20041;-75
2022/09/16 10:26:03;;;;;;;;;;;16.10;99.90;;;;;;5019901;28;20045;-78
2022/09/16 10:28:32;;;;;;;15.65;0.80;;;16.30;99.90;;;;;;5052204;28;19920;-78
2022/09/16 10:30:59;;;;;;;14.63;0.80;;;16.60;99.90;;;;;;5054049;28;20083;-75
2022/09/16 10:33:30;;;;;;;12.48;0.60;;;16.80;99.90;;;;;;5051359;28;20064;-78
2022/09/16 10:36:00;;;;;;;14.40;0.63;;;17.00;99.90;;;;;;5050463;28;20068;-78
2022/09/16 10:38:40;;;;;;;15.98;1.13;;;17.20;99.90;;;;;;5052876;28;20091;-75
2022/09/16 10:41:31;;;;;;;11.90;0.88;;;16.70;99.90;;;;;;5054338;28;20045;-75
2022/09/16 10:44:01;;;;;;;8.38;0.90;;;16.50;99.90;;;;;;5051492;28;20521;-77
2022/09/16 10:46:28;;;;;;;10.50;1.25;;;16.20;99.90;;;;;;5053544;28;20440;-77
2022/09/16 10:49:00;;;;;;;18.48;0.68;;;15.90;99.90;;;;;;5071317;28;20286;-79
2022/09/16 10:51:32;;;;;;;9.80;0.73;;;16.00;99.90;;;;;;5072671;28;20072;-73
2022/09/16 10:54:04;;;;;;;11.68;0.80;;;15.90;99.90;;;;;;5054341;28;20060;-76
2022/09/16 10:56:50;;;;;;;10.50;0.55;;;16.10;99.90;;;;;;5071635;28;20115;-73
2022/09/16 10:59:16;;;;;;;15.68;0.70;;;16.20;99.90;;;;;;5070689;28;20041;-78
2022/09/16 11:02:19;;;;;;;9.70;0.63;;;16.40;99.90;;;;;;5071831;28;20575;-78
2022/09/16 11:05:00;;;;;;;10.18;0.60;;;16.80;99.90;;;;;;5070490;28;20477;-77
2022/09/16 11:07:59;;;;;;;12.82;0.93;;;17.10;99.90;;;;;;5075880;28;20044;-78
2022/09/16 11:10:44;;;;;;;13.52;0.60;;;15.50;99.90;;;;;;5083442;28;20112;-78
2022/09/16 11:13:31;;;;;;;8.57;0.90;;;13.20;99.90;;;;;;5086228;28;20048;-77
2022/09/16 11:16:12;;;;;;;10.68;0.85;;;12.90;99.90;;;;;;5079059;28;20127;-76
2022/09/16 11:19:04;;;;;;;11.38;1.05;;;12.70;99.90;;;;;;5073276;28;20048;-78
2022/09/16 11:21:55;;;;;;;12.75;0.63;;;12.60;99.90;;;;;;5054250;28;20053;-80
2022/09/16 11:24:51;;;;;;;12.75;0.73;;;12.60;99.90;;;;;;5064651;28;20053;-78
2022/09/16 11:27:23;;;;;;;12.85;0.68;;;12.70;99.90;;;;;;5070130;28;20102;-79
2022/09/16 11:30:09;;;;;;;16.60;0.75;;;12.90;99.90;;;;;;5082579;28;20510;-80
2022/09/16 11:33:13;;;;;;;13.35;0.93;;;13.20;99.90;;;;;;5074431;28;20059;-77
2022/09/16 11:36:15;;;;;;;20.40;1.25;;;13.30;99.90;;;;;;5032903;28;20076;-80
2022/09/16 11:39:04;;;;;;;13.93;0.77;;;13.80;99.90;;;;;;5049259;28;20191;-78
2022/09/16 11:41:47;;;;;;;10.27;0.40;;;14.20;99.90;;;;;;5048915;28;20481;-75
2022/09/16 11:44:29;;;;;;;6.13;0.35;;;14.60;99.90;;;;;;5051701;28;20076;-78
2022/09/16 11:47:30;;;;;;;15.93;0.75;;;14.90;99.90;;;;;;5064717;28;20460;-79
2022/09/16 11:49:58;;;;;;;13.00;0.90;;;15.30;99.90;;;;;;5068045;28;20131;-72
2022/09/16 11:52:45;;;;;;;15.20;0.80;;;15.60;99.90;;;;;;5072250;28;20439;-74
2022/09/16 11:55:23;;;;;;;12.13;0.65;;;15.70;99.90;;;;;;5054372;28;20145;-76
2022/09/16 11:58:00;;;;;;;14.77;0.90;;;15.50;99.90;;;;;;5071924;28;20400;-75
2022/09/16 12:00:30;;;;;;;12.65;1.33;;;15.30;99.90;;;;;;5056159;28;20036;-77
2022/09/16 12:03:02;;;;;;;11.27;0.70;;;15.40;99.90;;;;;;5070150;28;20080;-78
2022/09/16 12:05:44;;;;;;;12.20;0.68;;;15.60;99.90;;;;;;5071645;28;20048;-76
2022/09/16 12:08:21;;;;;;;14.10;0.65;;;15.80;99.90;;;;;;5069653;28;20076;-76
2022/09/16 12:10:56;;;;;;;8.35;0.60;;;15.90;99.90;;;;;;5074962;28;20430;-78
2022/09/16 12:13:32;;;;;;;11.77;0.60;;;16.20;99.90;;;;;;5073829;28;20048;-77
2022/09/16 12:16:06;;;;;;;10.88;0.68;;;16.20;99.90;;;;;;5073145;28;20052;-78
2022/09/16 12:18:41;;;;;;;11.15;0.73;;;16.30;99.90;;;;;;5071669;28;20503;-77
2022/09/16 12:21:46;;;;;;;10.73;0.88;;;16.50;99.90;;;;;;5054215;28;20052;-79
2022/09/16 12:24:26;;;;;;;14.10;0.40;;;16.70;99.90;;;;;;5071792;28;20522;-76
2022/09/16 12:27:02;;;;;;;7.53;0.40;;;16.70;99.90;;;;;;5071974;28;20110;-80
2022/09/16 12:29:49;;;;;;;8.75;0.40;;;16.80;99.30;;;;;;5069461;28;20127;-77
2022/09/16 12:32:21;;;;;;;8.52;0.40;;;17.00;99.60;;;;;;5066731;28;20045;-73
2022/09/16 12:34:52;;;;;;;6.90;0.47;;;17.10;98.00;;;;;;5069904;28;20071;-77
2022/09/16 12:37:30;;;;;;;9.95;0.55;;;17.00;99.40;;;;;;5070831;28;20393;-75
2022/09/16 12:39:56;;;;;;;5.80;0.38;;;16.60;99.90;;;;;;5070822;28;20070;-74
2022/09/16 12:42:27;;;;;;;11.88;0.60;;;15.90;99.90;;;;;;5071623;28;20045;-74
2022/09/16 12:45:24;;;;;;;8.88;0.60;;;15.40;99.90;;;;;;5071800;28;20036;-74
2022/09/16 12:48:17;;;;;;;6.97;0.43;;;15.20;99.90;;;;;;5072949;28;20141;-75
2022/09/16 12:51:09;;;;;;;9.52;0.57;;;15.40;99.90;;;;;;5054354;28;20101;-79
2022/09/16 12:53:59;;;;;;;9.55;0.30;;;15.60;99.90;;;;;;5074589;28;20088;-75
2022/09/16 12:56:50;;;;;;;4.80;0.40;;;15.70;99.90;;;;;;5086542;28;20075;-76
2022/09/16 12:59:42;;;;;;;12.35;0.50;;;16.00;99.90;;;;;;5086797;28;20753;-75
2022/09/16 13:02:15;;;;;;;7.53;0.60;;;16.20;99.90;;;;;;5085049;28;20052;-75
2022/09/16 13:04:47;;;;;;;9.15;0.40;;;16.50;99.90;;;;;;5081725;28;20042;-79
2022/09/16 13:07:40;;;;;;;12.43;0.45;;;17.00;99.90;;;;;;5078964;28;20048;-73
2022/09/16 13:10:21;;;;;;;12.93;0.60;;;17.20;99.90;;;;;;5054500;28;20096;-75
2022/09/16 13:12:58;;;;;;;18.17;1.20;;;17.30;99.90;;;;;;5053522;28;20060;-79
2022/09/16 13:15:31;;;;;;;14.50;1.10;;;15.40;99.90;;;;;;5053408;28;20048;-74
2022/09/16 13:18:35;;;;;;;12.57;1.30;;;13.80;99.90;;;;;;5052148;28;20049;-77
2022/09/16 13:21:25;;;;;;;16.80;0.82;;;13.30;99.90;;;;;;5049031;28;20061;-76